Time;durP1;ratioP1;P1;durP2;ratioP2;P2;SDS_P1;SDS_P2;PMS_P1;PMS_P2;Temp;Humidity;BMP_temperature;BMP_pressure;BME280_temperature;BME280_humidity;BME280_pressure;Samples;Min_cycle;Max_cycle;Signal;HPM_P1;HPM_P2
2021/06/02 00:01:54;;;;;;;4.07;3.37;;;10.10;99.90;;;;;;4962423;28;20588;-80
2021/06/02 00:04:22;;;;;;;4.47;3.27;;;10.10;99.90;;;;;;4962923;28;20187;-79
2021/06/02 00:06:49;;;;;;;5.07;3.40;;;10.10;99.90;;;;;;4962466;28;20658;-79
2021/06/02 00:09:16;;;;;;;8.40;3.50;;;10.10;99.90;;;;;;4979162;28;20260;-80
2021/06/02 00:11:43;;;;;;;5.00;3.17;;;10.00;99.90;;;;;;4979728;28;20180;-80
2021/06/02 00:14:10;;;;;;;3.97;2.87;;;10.00;99.90;;;;;;4962238;28;20210;-80
2021/06/02 00:16:36;;;;;;;6.47;3.03;;;10.00;99.90;;;;;;4979621;28;20178;-79
2021/06/02 00:19:02;;;;;;;4.70;3.23;;;9.90;99.90;;;;;;4962158;28;20206;-80
2021/06/02 00:21:29;;;;;;;4.53;3.13;;;9.90;99.90;;;;;;4979307;28;20167;-80
2021/06/02 00:23:54;;;;;;;5.03;3.43;;;9.90;99.90;;;;;;4962574;28;20621;-80
2021/06/02 00:26:21;;;;;;;4.67;2.80;;;9.80;99.90;;;;;;4962252;28;20213;-79
2021/06/02 00:28:47;;;;;;;5.83;3.03;;;9.80;99.90;;;;;;4979341;28;20285;-80
2021/06/02 00:31:15;;;;;;;3.47;2.70;;;9.80;99.90;;;;;;4979421;28;20177;-79
2021/06/02 00:33:41;;;;;;;3.17;2.77;;;9.80;99.90;;;;;;4961269;28;20201;-79
2021/06/02 00:36:07;;;;;;;3.00;2.63;;;9.70;99.90;;;;;;4961521;28;20183;-79
2021/06/02 00:38:34;;;;;;;3.33;2.80;;;9.70;99.90;;;;;;4961805;28;20174;-79
2021/06/02 00:41:02;;;;;;;6.50;2.77;;;9.70;99.90;;;;;;4961557;28;20173;-79
2021/06/02 00:43:28;;;;;;;3.27;2.60;;;9.60;99.90;;;;;;4979197;28;20178;-79
2021/06/02 00:45:54;;;;;;;3.03;2.73;;;9.60;99.90;;;;;;4977312;28;20178;-80
2021/06/02 00:48:20;;;;;;;6.97;2.97;;;9.50;99.90;;;;;;4978236;28;20195;-79
2021/06/02 00:50:48;;;;;;;4.43;2.97;;;9.60;99.90;;;;;;4978322;28;20221;-79
2021/06/02 00:53:15;;;;;;;4.40;2.90;;;9.50;99.90;;;;;;4978451;28;20674;-79
2021/06/02 00:55:42;;;;;;;4.33;2.73;;;9.40;99.90;;;;;;4960760;28;20211;-79
2021/06/02 00:58:27;;;;;;;2.70;2.50;;;9.40;99.90;;;;;;4960489;28;20204;-79
2021/06/02 01:00:54;;;;;;;5.83;3.00;;;9.40;99.90;;;;;;4960362;28;20201;-80
2021/06/02 01:03:26;;;;;;;4.33;2.83;;;9.30;99.90;;;;;;4977893;28;20183;-79
2021/06/02 01:05:56;;;;;;;3.20;2.90;;;9.30;99.90;;;;;;4959798;28;20278;-79
2021/06/02 01:08:23;;;;;;;3.63;2.77;;;9.30;99.90;;;;;;4976397;28;20185;-79
2021/06/02 01:10:50;;;;;;;7.17;3.30;;;9.30;99.90;;;;;;4964649;28;20644;-80
2021/06/02 01:13:19;;;;;;;5.30;3.20;;;9.30;99.90;;;;;;4968272;28;20276;-80
2021/06/02 01:15:48;;;;;;;4.13;2.93;;;9.30;99.90;;;;;;4985281;28;20173;-79
2021/06/02 01:18:13;;;;;;;4.43;3.10;;;9.30;99.90;;;;;;4965000;28;20233;-79
2021/06/02 01:20:40;;;;;;;3.97;3.17;;;9.30;99.90;;;;;;4965642;28;20200;-79
2021/06/02 01:23:09;;;;;;;5.10;2.97;;;9.30;99.90;;;;;;4984474;28;20190;-79
2021/06/02 01:25:38;;;;;;;3.27;2.80;;;9.30;99.90;;;;;;4994227;28;20178;-80
2021/06/02 01:28:05;;;;;;;4.30;2.60;;;9.20;99.90;;;;;;4988521;28;20188;-80
2021/06/02 01:30:31;;;;;;;4.37;3.20;;;9.30;99.90;;;;;;4988663;28;20208;-80
2021/06/02 01:32:57;;;;;;;6.40;2.90;;;9.30;99.90;;;;;;4971604;28;20215;-80
2021/06/02 01:35:41;;;;;;;4.53;3.20;;;9.30;99.90;;;;;;4987076;28;20542;-79
2021/06/02 01:38:35;;;;;;;4.07;3.20;;;9.20;99.90;;;;;;4966014;28;20178;-79
2021/06/02 01:41:34;;;;;;;5.17;3.30;;;9.20;99.90;;;;;;4965504;28;20206;-80
2021/06/02 01:44:27;;;;;;;3.80;3.40;;;9.10;99.90;;;;;;4983030;28;20188;-80
2021/06/02 01:47:05;;;;;;;5.60;3.63;;;9.10;99.90;;;;;;4987212;28;20643;-79
2021/06/02 01:50:02;;;;;;;4.30;3.37;;;9.20;99.90;;;;;;4982773;28;20225;-79
2021/06/02 01:53:03;;;;;;;5.33;3.50;;;9.10;99.90;;;;;;4966887;28;20260;-80
2021/06/02 01:56:06;;;;;;;3.97;3.53;;;9.10;99.90;;;;;;4965810;28;20269;-79
2021/06/02 01:59:02;;;;;;;5.03;3.67;;;9.00;99.90;;;;;;4965240;28;20189;-79
2021/06/02 02:01:55;;;;;;;5.47;3.80;;;8.90;99.90;;;;;;4982988;28;20165;-80
2021/06/02 02:04:42;;;;;;;4.70;3.57;;;9.00;99.90;;;;;;4982791;28;20532;-80
2021/06/02 02:07:34;;;;;;;3.90;3.23;;;9.00;99.90;;;;;;4967098;28;20181;-80
2021/06/02 02:10:49;;;;;;;4.53;3.90;;;9.00;99.90;;;;;;4965042;28;20692;-80
2021/06/02 02:13:41;;;;;;;5.40;3.80;;;8.90;99.90;;;;;;4983389;28;20193;-79
2021/06/02 02:16:50;;;;;;;8.83;3.93;;;8.80;99.90;;;;;;4966335;28;20173;-79
2021/06/02 02:19:43;;;;;;;4.00;3.60;;;8.80;99.90;;;;;;4983843;28;20216;-79
2021/06/02 02:22:18;;;;;;;4.60;4.13;;;8.80;99.90;;;;;;4983167;28;20173;-80
2021/06/02 02:24:49;;;;;;;4.87;4.37;;;8.80;99.90;;;;;;4965310;28;20259;-79
2021/06/02 02:27:28;;;;;;;4.23;3.50;;;8.80;99.90;;;;;;4982557;28;20244;-79
2021/06/02 02:30:08;;;;;;;6.30;4.37;;;8.80;99.90;;;;;;4966131;28;20209;-80
2021/06/02 02:33:10;;;;;;;7.70;4.13;;;8.80;99.90;;;;;;4983852;28;20786;-79
2021/06/02 02:35:45;;;;;;;4.40;3.67;;;8.70;99.90;;;;;;4983237;28;20631;-79
2021/06/02 02:38:29;;;;;;;5.53;4.57;;;8.70;99.90;;;;;;4965333;28;20186;-79
2021/06/02 02:41:24;;;;;;;6.27;3.80;;;8.60;99.90;;;;;;4966105;28;20540;-79
2021/06/02 02:44:12;;;;;;;5.17;4.17;;;8.60;99.90;;;;;;4977863;28;20257;-79
2021/06/02 02:46:44;;;;;;;5.47;4.13;;;8.60;99.90;;;;;;4966081;28;20188;-79
2021/06/02 02:49:21;;;;;;;6.00;4.70;;;8.70;99.90;;;;;;4983739;28;20333;-79
2021/06/02 02:52:01;;;;;;;5.77;3.53;;;8.60;99.90;;;;;;4984216;28;20182;-80
2021/06/02 02:55:00;;;;;;;5.90;4.70;;;8.50;99.90;;;;;;4982937;28;20560;-79
2021/06/02 02:58:04;;;;;;;4.07;3.60;;;8.40;99.90;;;;;;4967561;28;20178;-79
2021/06/02 03:01:00;;;;;;;9.07;4.00;;;8.30;99.90;;;;;;4953819;28;20214;-80
2021/06/02 03:03:31;;;;;;;4.77;4.20;;;8.30;99.90;;;;;;4965392;28;20202;-79
2021/06/02 03:05:59;;;;;;;8.17;4.13;;;8.20;99.90;;;;;;4984118;28;20180;-80
2021/06/02 03:08:40;;;;;;;5.13;4.17;;;8.30;99.90;;;;;;4966998;28;20213;-80
2021/06/02 03:11:15;;;;;;;4.37;3.60;;;8.20;99.90;;;;;;4962811;28;20184;-79
2021/06/02 03:13:59;;;;;;;5.20;3.77;;;8.30;99.90;;;;;;4961012;28;20245;-79
2021/06/02 03:16:34;;;;;;;6.70;3.97;;;8.20;99.90;;;;;;4969615;28;20173;-80
2021/06/02 03:19:12;;;;;;;5.43;4.10;;;8.20;99.90;;;;;;4964838;28;20682;-79
2021/06/02 03:21:58;;;;;;;5.93;3.87;;;8.20;99.90;;;;;;4965545;28;20250;-79
2021/06/02 03:24:52;;;;;;;5.50;3.60;;;8.20;99.90;;;;;;4965858;28;20604;-80
2021/06/02 03:27:32;;;;;;;8.87;3.87;;;8.10;99.90;;;;;;4966613;28;20184;-80
2021/06/02 03:30:07;;;;;;;7.87;4.43;;;8.00;99.90;;;;;;4983449;28;20207;-79
2021/06/02 03:32:54;;;;;;;4.50;4.10;;;8.00;99.90;;;;;;4983842;28;20243;-80
2021/06/02 03:35:31;;;;;;;4.70;3.63;;;8.00;99.90;;;;;;4966474;28;20182;-80
2021/06/02 03:38:15;;;;;;;5.53;4.63;;;8.00;99.90;;;;;;4983146;28;20245;-80
2021/06/02 03:40:57;;;;;;;4.40;4.00;;;8.00;99.90;;;;;;4967174;28;20196;-80
2021/06/02 03:43:31;;;;;;;5.90;4.50;;;8.00;99.90;;;;;;4985483;28;20205;-80
2021/06/02 03:46:21;;;;;;;5.27;4.23;;;8.00;99.90;;;;;;4985806;28;20177;-80
2021/06/02 03:49:09;;;;;;;6.53;4.37;;;8.00;99.90;;;;;;4985512;28;20198;-80
2021/06/02 03:51:57;;;;;;;7.73;4.37;;;8.00;99.90;;;;;;4968938;28;20194;-80
2021/06/02 03:54:34;;;;;;;4.80;4.10;;;8.00;99.90;;;;;;4985938;28;20184;-80
2021/06/02 03:57:13;;;;;;;6.37;4.00;;;8.00;99.90;;;;;;4983064;28;20178;-79
2021/06/02 04:00:13;;;;;;;7.60;3.97;;;8.00;99.90;;;;;;4982146;28;20213;-81
2021/06/02 04:03:09;;;;;;;4.70;3.90;;;8.00;99.90;;;;;;4982042;28;20189;-80
2021/06/02 04:05:52;;;;;;;9.13;4.40;;;8.00;99.90;;;;;;4970570;28;20177;-80
2021/06/02 04:08:33;;;;;;;6.37;3.97;;;8.00;99.90;;;;;;4967921;28;20190;-81
2021/06/02 04:11:19;;;;;;;5.70;3.90;;;8.10;99.90;;;;;;4968964;28;20252;-79
2021/06/02 04:13:55;;;;;;;4.67;4.17;;;8.10;99.90;;;;;;4988657;28;20710;-79
2021/06/02 04:16:24;;;;;;;5.27;4.40;;;8.20;99.90;;;;;;4983235;28;20177;-80
2021/06/02 04:18:51;;;;;;;4.70;4.20;;;8.20;99.90;;;;;;4982282;28;20192;-79
2021/06/02 04:21:22;;;;;;;4.90;4.40;;;8.30;99.90;;;;;;4965751;28;20177;-79
2021/06/02 04:23:48;;;;;;;5.47;4.40;;;8.40;99.90;;;;;;4965739;28;20339;-79
2021/06/02 04:26:14;;;;;;;4.90;4.20;;;8.40;99.90;;;;;;4965167;28;20197;-79
2021/06/02 04:28:41;;;;;;;6.07;4.33;;;8.50;99.90;;;;;;4980267;28;20201;-79
2021/06/02 04:31:13;;;;;;;6.90;4.23;;;8.50;99.90;;;;;;4963081;28;20178;-79
2021/06/02 04:33:41;;;;;;;4.67;3.63;;;8.60;99.90;;;;;;4981129;28;20200;-79
2021/06/02 04:36:10;;;;;;;4.37;3.70;;;8.70;99.90;;;;;;4980817;28;20644;-79
2021/06/02 04:38:36;;;;;;;4.63;4.13;;;8.70;99.90;;;;;;4980523;28;20178;-79
2021/06/02 04:41:04;;;;;;;4.63;4.17;;;8.80;99.90;;;;;;4980214;28;20181;-79
2021/06/02 04:43:38;;;;;;;7.23;3.70;;;8.90;99.90;;;;;;4962940;28;20185;-79
2021/06/02 04:46:06;;;;;;;4.63;3.73;;;9.00;99.90;;;;;;4962681;28;20188;-79
2021/06/02 04:48:32;;;;;;;7.40;3.87;;;9.10;99.90;;;;;;4979668;28;20191;-79
2021/06/02 04:51:25;;;;;;;5.37;4.17;;;9.20;99.90;;;;;;4979484;28;20203;-79
2021/06/02 04:53:56;;;;;;;7.23;4.27;;;9.20;99.90;;;;;;4980031;28;20195;-80
2021/06/02 04:56:49;;;;;;;6.63;4.20;;;9.30;99.90;;;;;;4979444;28;20212;-80
2021/06/02 04:59:34;;;;;;;10.57;5.03;;;9.30;99.90;;;;;;4979014;28;20202;-79
2021/06/02 05:02:12;;;;;;;6.73;3.87;;;9.50;99.90;;;;;;4978413;28;20175;-79
2021/06/02 05:05:02;;;;;;;6.03;4.10;;;9.50;99.90;;;;;;4961375;28;20177;-79
2021/06/02 05:07:51;;;;;;;4.90;3.80;;;9.60;99.90;;;;;;4960843;28;20227;-80
2021/06/02 05:11:11;;;;;;;8.00;4.20;;;9.70;99.90;;;;;;4912266;28;20280;-80
2021/06/02 05:14:04;;;;;;;4.50;3.17;;;9.90;99.90;;;;;;4918045;29;20637;-80
2021/06/02 05:17:01;;;;;;;4.63;3.37;;;9.90;99.90;;;;;;4977390;28;20161;-80
2021/06/02 05:22:14;;;;;;;8.40;3.97;;;10.20;99.90;;;;;;4982377;28;20168;-80
2021/06/02 05:25:07;;;;;;;8.60;3.70;;;10.40;99.90;;;;;;4962888;28;20724;-80
2021/06/02 05:28:18;;;;;;;9.43;4.00;;;10.60;99.90;;;;;;4964360;28;20554;-80
2021/06/02 05:31:05;;;;;;;5.07;3.50;;;10.70;99.90;;;;;;4962669;28;20235;-80
2021/06/02 05:33:55;;;;;;;6.17;3.53;;;10.90;99.90;;;;;;4978674;28;20252;-81
2021/06/02 05:36:37;;;;;;;4.67;3.70;;;11.10;99.90;;;;;;4979474;28;20194;-81
2021/06/02 05:39:05;;;;;;;5.23;3.73;;;11.30;99.90;;;;;;4963686;28;20199;-81
2021/06/02 05:41:53;;;;;;;6.20;3.63;;;11.50;99.90;;;;;;4964119;28;20176;-81
2021/06/02 05:44:46;;;;;;;4.50;3.50;;;11.70;99.90;;;;;;4981784;28;20669;-81
2021/06/02 05:47:43;;;;;;;4.97;3.13;;;11.80;99.90;;;;;;4963664;28;20211;-81
2021/06/02 05:50:42;;;;;;;4.50;3.70;;;12.00;99.90;;;;;;4981198;28;20231;-81
2021/06/02 05:53:29;;;;;;;5.67;3.70;;;12.20;99.90;;;;;;4963878;28;20211;-81
2021/06/02 05:56:32;;;;;;;9.40;4.23;;;12.30;99.90;;;;;;4964166;28;20192;-81
2021/06/02 05:59:35;;;;;;;5.80;3.57;;;12.50;99.90;;;;;;4980881;28;20203;-81
2021/06/02 06:02:28;;;;;;;4.67;2.70;;;12.60;99.90;;;;;;4984039;28;20634;-81
2021/06/02 06:05:15;;;;;;;4.97;3.40;;;12.80;99.90;;;;;;4985725;28;20504;-82
2021/06/02 06:08:18;;;;;;;4.43;3.20;;;12.90;99.90;;;;;;4987980;28;20537;-81
2021/06/02 06:11:04;;;;;;;5.03;3.40;;;13.10;99.90;;;;;;4973386;28;20291;-81
2021/06/02 06:14:07;;;;;;;5.43;3.33;;;13.20;99.90;;;;;;4981958;28;20196;-81
2021/06/02 06:16:43;;;;;;;7.97;3.53;;;13.30;99.90;;;;;;4981002;28;20167;-81
2021/06/02 06:19:24;;;;;;;6.50;3.60;;;13.50;99.90;;;;;;4963336;28;20202;-81
2021/06/02 06:21:59;;;;;;;4.03;3.07;;;13.60;99.90;;;;;;4964413;28;20289;-81
2021/06/02 06:24:38;;;;;;;3.90;3.33;;;13.80;99.90;;;;;;4963634;28;20184;-81
2021/06/02 06:27:17;;;;;;;9.10;3.43;;;14.00;99.90;;;;;;4965006;28;20586;-82
2021/06/02 06:30:03;;;;;;;4.67;3.30;;;14.10;99.90;;;;;;4983969;28;20219;-82
2021/06/02 06:32:31;;;;;;;5.53;3.30;;;14.30;99.90;;;;;;4966431;28;20212;-81
2021/06/02 06:35:00;;;;;;;4.60;3.37;;;14.40;99.90;;;;;;4965477;28;20180;-82
2021/06/02 06:37:31;;;;;;;10.80;3.77;;;14.60;99.90;;;;;;4982823;28;20184;-81
2021/06/02 06:40:02;;;;;;;8.67;3.47;;;14.70;99.90;;;;;;4983030;28;20628;-81
2021/06/02 06:42:34;;;;;;;7.60;3.50;;;14.80;99.90;;;;;;4966377;28;20180;-81
2021/06/02 06:45:16;;;;;;;6.87;3.60;;;14.90;99.90;;;;;;4965651;28;20172;-81
2021/06/02 06:47:43;;;;;;;6.93;3.03;;;15.10;99.90;;;;;;4976647;28;20187;-82
2021/06/02 06:50:10;;;;;;;5.03;3.17;;;15.20;99.90;;;;;;4983602;28;20677;-82
2021/06/02 06:52:38;;;;;;;4.37;3.30;;;15.40;99.90;;;;;;4966229;28;20239;-82
2021/06/02 06:55:06;;;;;;;8.40;3.17;;;15.50;99.90;;;;;;4982541;28;20172;-82
2021/06/02 06:57:34;;;;;;;5.90;3.50;;;15.70;99.90;;;;;;4964822;28;20303;-82
2021/06/02 07:00:00;;;;;;;8.33;3.50;;;15.80;99.90;;;;;;4965414;28;20740;-81
2021/06/02 07:02:28;;;;;;;7.00;3.20;;;15.90;99.90;;;;;;4981747;28;20227;-82
2021/06/02 07:04:56;;;;;;;5.40;3.33;;;16.00;99.90;;;;;;4982203;28;20580;-82
2021/06/02 07:07:24;;;;;;;9.77;3.40;;;16.10;99.90;;;;;;4982091;28;20183;-82
2021/06/02 07:09:50;;;;;;;5.50;3.40;;;16.30;99.90;;;;;;4963839;28;20200;-82
2021/06/02 07:12:19;;;;;;;6.33;3.90;;;16.50;99.90;;;;;;4979848;28;20266;-82
2021/06/02 07:14:46;;;;;;;9.57;3.40;;;16.80;99.90;;;;;;4962473;28;20304;-82
2021/06/02 07:17:13;;;;;;;9.20;4.13;;;17.10;99.90;;;;;;4962223;28;20180;-82
2021/06/02 07:19:45;;;;;;;15.57;4.03;;;17.20;99.90;;;;;;4987159;28;20223;-82
2021/06/02 07:22:12;;;;;;;7.13;3.80;;;17.40;99.90;;;;;;4983436;28;20164;-82
2021/06/02 07:24:38;;;;;;;6.63;3.67;;;17.60;99.90;;;;;;4965626;28;20176;-82
2021/06/02 07:27:05;;;;;;;9.87;3.83;;;17.70;99.90;;;;;;4964964;28;20191;-82
2021/06/02 07:29:30;;;;;;;12.40;3.90;;;17.90;99.90;;;;;;4965023;28;20286;-82
2021/06/02 07:31:56;;;;;;;5.43;3.30;;;18.00;99.90;;;;;;4965884;28;20593;-82
2021/06/02 07:34:22;;;;;;;4.77;3.30;;;18.10;99.90;;;;;;4983292;28;20216;-82
2021/06/02 07:36:50;;;;;;;4.20;3.33;;;18.20;99.90;;;;;;4981644;28;20208;-83
2021/06/02 07:39:17;;;;;;;3.20;2.90;;;18.30;99.90;;;;;;4964998;28;20212;-82
2021/06/02 07:41:42;;;;;;;4.77;3.33;;;18.50;99.90;;;;;;4965354;28;20185;-82
2021/06/02 07:44:08;;;;;;;5.90;3.20;;;18.60;99.90;;;;;;4983514;28;20205;-82
2021/06/02 07:46:34;;;;;;;3.60;2.97;;;18.60;99.90;;;;;;4982684;28;20179;-83
2021/06/02 07:49:01;;;;;;;14.87;3.17;;;18.70;99.90;;;;;;4966206;28;20212;-82
2021/06/02 07:51:27;;;;;;;4.07;2.77;;;18.70;99.90;;;;;;4966450;28;20179;-82
2021/06/02 07:53:53;;;;;;;3.97;2.80;;;18.90;99.90;;;;;;4983063;28;20216;-82
2021/06/02 07:56:18;;;;;;;3.67;2.60;;;19.10;98.90;;;;;;4983502;28;20681;-83
2021/06/02 07:58:44;;;;;;;3.00;2.57;;;19.30;98.10;;;;;;4987668;28;20176;-82
2021/06/02 08:01:10;;;;;;;6.27;3.20;;;19.50;98.30;;;;;;4985409;28;20190;-84
2021/06/02 08:03:35;;;;;;;5.13;2.90;;;19.50;96.20;;;;;;4967854;28;20197;-83
2021/06/02 08:06:01;;;;;;;7.30;3.00;;;19.70;96.20;;;;;;4984325;28;20264;-80
2021/06/02 08:08:27;;;;;;;2.53;2.33;;;20.00;94.10;;;;;;4965610;28;20186;-80
2021/06/02 08:10:52;;;;;;;3.10;2.50;;;20.10;92.40;;;;;;4960221;28;20245;-80
2021/06/02 08:13:18;;;;;;;4.57;2.00;;;20.20;89.00;;;;;;4962139;28;20215;-80
2021/06/02 08:15:44;;;;;;;3.87;2.33;;;20.20;85.90;;;;;;4984464;28;20573;-81
2021/06/02 08:18:09;;;;;;;4.73;2.30;;;20.40;83.30;;;;;;4966861;28;20251;-81
2021/06/02 08:20:35;;;;;;;3.63;2.60;;;20.60;84.30;;;;;;4983594;28;20203;-81
2021/06/02 08:23:01;;;;;;;5.63;2.40;;;20.60;82.10;;;;;;4983725;28;20184;-81
2021/06/02 08:25:27;;;;;;;7.07;2.70;;;20.80;78.60;;;;;;4989843;28;20196;-81
2021/06/02 08:27:52;;;;;;;6.77;3.40;;;20.80;77.90;;;;;;4989599;28;20176;-81
2021/06/02 08:30:18;;;;;;;3.53;2.43;;;21.10;77.30;;;;;;4964286;28;20204;-81
2021/06/02 08:32:45;;;;;;;3.43;2.70;;;21.60;75.80;;;;;;4982092;28;20207;-81
2021/06/02 08:35:14;;;;;;;5.43;2.93;;;22.20;71.50;;;;;;4981325;28;20172;-81
2021/06/02 08:37:40;;;;;;;7.53;2.50;;;22.70;70.50;;;;;;4979791;28;20156;-81
2021/06/02 08:40:07;;;;;;;5.07;2.80;;;23.40;69.90;;;;;;4962847;28;20299;-81
2021/06/02 08:42:33;;;;;;;3.23;2.40;;;23.90;66.40;;;;;;4963206;28;20219;-81
2021/06/02 08:44:59;;;;;;;3.90;2.27;;;24.40;63.40;;;;;;4962605;28;20184;-81
2021/06/02 08:47:24;;;;;;;3.63;2.53;;;24.60;61.10;;;;;;4978201;28;20274;-81
2021/06/02 08:49:50;;;;;;;2.70;2.17;;;24.90;59.50;;;;;;4962328;28;20246;-81
2021/06/02 08:52:16;;;;;;;2.73;2.50;;;25.20;57.00;;;;;;4961635;28;20180;-81
2021/06/02 08:54:42;;;;;;;2.37;2.07;;;25.30;54.90;;;;;;4978080;28;20177;-81
2021/06/02 08:57:09;;;;;;;2.33;2.13;;;25.40;52.90;;;;;;4961449;28;20182;-81
2021/06/02 08:59:36;;;;;;;7.70;2.53;;;25.80;54.20;;;;;;4961593;28;20203;-81
2021/06/02 09:02:05;;;;;;;2.13;1.57;;;25.70;53.20;;;;;;4962298;28;20233;-80
2021/06/02 09:04:33;;;;;;;2.13;1.53;;;25.60;51.00;;;;;;4964258;28;20190;-81
2021/06/02 09:07:03;;;;;;;2.20;1.63;;;25.90;50.50;;;;;;4990047;28;20156;-81
2021/06/02 09:09:30;;;;;;;2.30;1.70;;;26.10;48.40;;;;;;4961584;28;20205;-81
2021/06/02 09:12:01;;;;;;;2.63;1.67;;;26.30;49.20;;;;;;4960203;28;20182;-81
2021/06/02 09:14:33;;;;;;;2.87;2.00;;;26.50;50.30;;;;;;4960876;28;20196;-81
2021/06/02 09:17:07;;;;;;;4.17;2.50;;;26.00;47.50;;;;;;4961589;28;20512;-81
2021/06/02 09:19:41;;;;;;;2.43;1.97;;;25.40;48.70;;;;;;4984463;28;20196;-81
2021/06/02 09:22:10;;;;;;;9.93;3.60;;;25.60;49.70;;;;;;4979610;28;20180;-81
2021/06/02 09:24:50;;;;;;;3.57;1.80;;;25.50;49.80;;;;;;4980223;28;20501;-81
2021/06/02 09:27:18;;;;;;;3.63;2.00;;;25.80;48.10;;;;;;4962734;28;20171;-81
2021/06/02 09:29:53;;;;;;;2.10;1.90;;;26.00;48.50;;;;;;4977304;28;20196;-81
2021/06/02 09:32:21;;;;;;;2.80;2.03;;;26.00;50.40;;;;;;4968561;28;20184;-81
2021/06/02 09:34:48;;;;;;;2.50;1.53;;;25.90;49.30;;;;;;4991567;28;20188;-81
2021/06/02 09:37:14;;;;;;;2.10;1.47;;;25.90;47.20;;;;;;4968856;28;20187;-82
2021/06/02 09:39:44;;;;;;;4.77;1.90;;;25.80;45.30;;;;;;4968366;28;20200;-81
2021/06/02 09:42:26;;;;;;;4.57;1.87;;;25.70;46.60;;;;;;4969052;28;20179;-81
2021/06/02 09:45:09;;;;;;;7.10;1.70;;;25.60;47.80;;;;;;4968421;28;20273;-81
2021/06/02 09:47:53;;;;;;;8.13;2.00;;;25.60;48.30;;;;;;4968444;28;20533;-81
2021/06/02 09:50:37;;;;;;;3.70;1.70;;;25.70;45.70;;;;;;4968416;28;20219;-81
2021/06/02 09:53:05;;;;;;;3.10;2.10;;;25.60;46.70;;;;;;4986117;28;20672;-81
2021/06/02 09:55:34;;;;;;;5.23;1.97;;;25.80;46.00;;;;;;4968037;28;20181;-81
2021/06/02 09:58:09;;;;;;;2.57;1.80;;;26.00;47.60;;;;;;4985919;28;20260;-81
2021/06/02 10:00:53;;;;;;;1.80;1.37;;;26.10;46.70;;;;;;4969267;28;20195;-81
2021/06/02 10:03:20;;;;;;;1.67;1.57;;;26.50;48.80;;;;;;4985636;28;20165;-81
2021/06/02 10:05:48;;;;;;;3.10;1.53;;;26.50;46.10;;;;;;4985603;28;20205;-80
2021/06/02 10:08:34;;;;;;;2.63;1.40;;;26.70;47.90;;;;;;4985291;28;20181;-81
2021/06/02 10:11:18;;;;;;;3.70;1.63;;;26.50;44.20;;;;;;4984630;28;20532;-81
2021/06/02 10:13:49;;;;;;;4.93;1.83;;;26.40;44.40;;;;;;4967154;28;20300;-81
2021/06/02 10:16:33;;;;;;;4.37;2.13;;;26.40;45.90;;;;;;4968332;28;20529;-81
2021/06/02 10:18:58;;;;;;;3.03;1.77;;;26.80;49.30;;;;;;4967710;28;20204;-81
2021/06/02 10:21:24;;;;;;;1.60;1.50;;;27.00;48.70;;;;;;4969696;28;20187;-81
2021/06/02 10:23:50;;;;;;;2.83;1.63;;;26.80;44.50;;;;;;4986937;28;20188;-81
2021/06/02 10:26:19;;;;;;;1.70;1.60;;;26.70;46.30;;;;;;4987519;28;20181;-81
2021/06/02 10:28:47;;;;;;;3.37;1.47;;;26.80;47.60;;;;;;4987191;28;20173;-81
2021/06/02 10:31:15;;;;;;;3.83;1.73;;;26.80;45.10;;;;;;4970438;28;20208;-82
2021/06/02 10:33:41;;;;;;;2.10;1.90;;;27.00;47.50;;;;;;4988291;28;20211;-81
2021/06/02 10:36:08;;;;;;;3.40;2.10;;;27.40;43.10;;;;;;4987655;28;20180;-81
2021/06/02 10:38:51;;;;;;;3.43;1.90;;;27.70;47.70;;;;;;4988640;28;20180;-81
2021/06/02 10:41:33;;;;;;;4.07;1.80;;;27.70;49.10;;;;;;4973042;28;20526;-81
2021/06/02 10:44:10;;;;;;;2.50;1.53;;;27.50;44.70;;;;;;4972389;28;20213;-81
2021/06/02 10:46:41;;;;;;;5.17;1.90;;;27.60;47.20;;;;;;4969698;28;20177;-81
2021/06/02 10:49:06;;;;;;;3.20;1.50;;;27.80;46.90;;;;;;4969297;28;20206;-82
2021/06/02 10:51:32;;;;;;;5.10;2.00;;;28.10;42.30;;;;;;4986969;28;20171;-81
2021/06/02 10:54:12;;;;;;;3.43;1.57;;;27.60;41.00;;;;;;4987246;28;20260;-81
2021/06/02 10:56:58;;;;;;;5.23;2.00;;;27.70;40.20;;;;;;4987122;28;20163;-81
2021/06/02 10:59:30;;;;;;;2.03;1.70;;;27.90;44.40;;;;;;4967822;28;20262;-82
2021/06/02 11:02:10;;;;;;;4.60;2.03;;;27.90;42.60;;;;;;4984865;28;20173;-81
2021/06/02 11:04:40;;;;;;;2.30;2.10;;;28.20;44.10;;;;;;4985272;28;20273;-81
2021/06/02 11:07:20;;;;;;;3.03;1.37;;;28.60;46.30;;;;;;4983699;28;20299;-81
2021/06/02 11:09:58;;;;;;;3.77;1.90;;;28.90;43.30;;;;;;4966205;28;20214;-81
2021/06/02 11:12:25;;;;;;;2.17;1.70;;;28.70;42.50;;;;;;4964755;28;20199;-81
2021/06/02 11:14:52;;;;;;;2.37;2.10;;;28.70;47.40;;;;;;4967367;28;20194;-82
2021/06/02 11:17:20;;;;;;;2.10;1.67;;;28.80;47.10;;;;;;4987683;28;20184;-82
2021/06/02 11:19:48;;;;;;;4.80;2.00;;;29.00;42.20;;;;;;4966005;28;20220;-81
2021/06/02 11:22:19;;;;;;;3.50;1.80;;;29.20;41.90;;;;;;4966047;28;20218;-82
2021/06/02 11:24:47;;;;;;;6.20;1.60;;;29.30;44.70;;;;;;4983632;28;20169;-82
2021/06/02 11:29:50;;;;;;;2.43;1.50;;;29.70;43.60;;;;;;4993735;28;20647;-82
2021/06/02 11:32:19;;;;;;;2.77;1.60;;;30.00;44.90;;;;;;4985378;28;20187;-81
2021/06/02 11:34:50;;;;;;;2.40;1.60;;;30.00;43.50;;;;;;4968178;28;20186;-82
2021/06/02 11:37:17;;;;;;;2.67;1.90;;;30.20;41.40;;;;;;4968032;28;20176;-82
2021/06/02 11:39:44;;;;;;;2.13;1.50;;;30.30;40.50;;;;;;4986551;28;20210;-82
2021/06/02 11:42:34;;;;;;;3.30;1.30;;;29.90;39.90;;;;;;4986161;28;20183;-81
2021/06/02 11:45:10;;;;;;;2.17;1.80;;;30.10;39.60;;;;;;4968237;28;20180;-84
2021/06/02 11:47:38;;;;;;;5.73;1.60;;;30.50;36.30;;;;;;4985089;28;20201;-82
2021/06/02 11:50:10;;;;;;;1.70;1.60;;;29.90;38.50;;;;;;4985363;28;20275;-81
2021/06/02 11:52:36;;;;;;;1.57;1.40;;;29.50;41.40;;;;;;4969514;28;20169;-82
2021/06/02 11:55:14;;;;;;;2.30;1.60;;;30.20;39.20;;;;;;4986660;28;20174;-81
2021/06/02 11:57:44;;;;;;;1.93;1.60;;;30.40;38.90;;;;;;4968308;28;20178;-81
2021/06/02 12:00:11;;;;;;;1.30;1.20;;;31.00;38.40;;;;;;4986488;28;20184;-82
2021/06/02 12:02:38;;;;;;;2.03;1.50;;;31.60;38.00;;;;;;4969126;28;20270;-82
2021/06/02 12:05:19;;;;;;;1.93;1.47;;;31.80;42.30;;;;;;4986231;28;20182;-82
2021/06/02 12:07:58;;;;;;;2.57;1.90;;;31.50;36.80;;;;;;4985299;28;20180;-83
2021/06/02 12:10:29;;;;;;;3.43;1.70;;;31.80;40.20;;;;;;4986056;28;20188;-82
2021/06/02 12:12:55;;;;;;;3.07;1.53;;;31.80;39.80;;;;;;4968887;28;20200;-82
2021/06/02 12:15:21;;;;;;;1.43;1.30;;;31.90;38.80;;;;;;4985782;28;20183;-82
2021/06/02 12:17:49;;;;;;;1.33;1.20;;;31.90;39.40;;;;;;4987011;28;20181;-80
2021/06/02 12:20:21;;;;;;;1.90;1.27;;;32.10;38.90;;;;;;4984257;28;20276;-80
2021/06/02 12:22:48;;;;;;;1.43;1.33;;;31.90;36.30;;;;;;4963058;28;20181;-80
2021/06/02 12:25:16;;;;;;;2.60;1.50;;;32.40;41.00;;;;;;4979220;28;20208;-80
2021/06/02 12:27:55;;;;;;;8.80;1.90;;;32.10;38.80;;;;;;4978249;28;20241;-80
2021/06/02 12:30:27;;;;;;;1.60;1.50;;;31.90;37.40;;;;;;4960861;28;20204;-80
2021/06/02 12:33:00;;;;;;;2.97;1.20;;;31.90;40.50;;;;;;4960903;28;20262;-80
2021/06/02 12:35:32;;;;;;;1.97;1.57;;;32.10;41.20;;;;;;4978654;28;20176;-81
2021/06/02 12:38:05;;;;;;;2.23;1.30;;;32.10;36.70;;;;;;4984351;28;20179;-81
2021/06/02 12:40:31;;;;;;;4.23;1.73;;;32.40;37.90;;;;;;4985356;28;20344;-81
2021/06/02 12:42:57;;;;;;;2.67;1.50;;;32.50;40.30;;;;;;4968691;28;20185;-81
2021/06/02 12:45:25;;;;;;;4.17;1.40;;;32.60;36.50;;;;;;4986984;28;20176;-81
2021/06/02 12:47:52;;;;;;;2.17;1.63;;;31.90;36.60;;;;;;4968244;28;20192;-80
2021/06/02 12:50:35;;;;;;;3.70;1.50;;;32.10;38.80;;;;;;4985505;28;20215;-82
2021/06/02 12:53:00;;;;;;;1.40;1.30;;;32.30;41.10;;;;;;4986076;28;20199;-82
2021/06/02 12:55:26;;;;;;;3.83;1.60;;;32.30;39.20;;;;;;4989581;28;20197;-79
2021/06/02 12:58:04;;;;;;;3.53;1.67;;;31.90;40.00;;;;;;4980353;28;20196;-81
2021/06/02 13:00:30;;;;;;;2.73;1.70;;;31.80;39.70;;;;;;4979368;28;20197;-79
2021/06/02 13:02:58;;;;;;;1.80;1.70;;;31.90;39.40;;;;;;4981015;28;20192;-80
2021/06/02 13:05:25;;;;;;;3.43;1.50;;;31.80;39.60;;;;;;4979794;28;20187;-81
2021/06/02 13:07:51;;;;;;;3.93;1.67;;;31.70;40.00;;;;;;4961202;28;20193;-81
2021/06/02 13:10:17;;;;;;;4.10;1.37;;;31.70;41.70;;;;;;4978243;28;20283;-82
2021/06/02 13:12:50;;;;;;;3.33;1.60;;;31.80;40.60;;;;;;4970480;28;20564;-81
2021/06/02 13:15:25;;;;;;;4.33;1.70;;;31.60;39.50;;;;;;4981120;28;20534;-81
2021/06/02 13:17:51;;;;;;;1.73;1.60;;;31.50;41.10;;;;;;4964559;28;20183;-81
2021/06/02 13:20:40;;;;;;;1.87;1.50;;;32.00;38.50;;;;;;4963983;28;20288;-81
2021/06/02 13:23:11;;;;;;;3.30;1.57;;;31.90;41.10;;;;;;4982194;28;20181;-82
2021/06/02 13:25:39;;;;;;;2.30;1.60;;;32.00;40.90;;;;;;4964387;28;20633;-81
2021/06/02 13:28:07;;;;;;;1.90;1.67;;;31.60;39.10;;;;;;4963197;28;20186;-81
2021/06/02 13:30:42;;;;;;;4.80;1.80;;;31.50;43.20;;;;;;4962877;28;20212;-81
2021/06/02 13:33:09;;;;;;;1.87;1.50;;;31.40;41.30;;;;;;4961888;28;20212;-81
2021/06/02 13:35:35;;;;;;;3.53;1.83;;;31.00;40.40;;;;;;4978954;28;20199;-81